Time;durP1;ratioP1;P1;durP2;ratioP2;P2;SDS_P1;SDS_P2;PMS_P1;PMS_P2;Temp;Humidity;BMP_temperature;BMP_pressure;BME280_temperature;BME280_humidity;BME280_pressure;Samples;Min_cycle;Max_cycle;Signal;HPM_P1;HPM_P2
2022/03/06 00:00:32;;;;;;;;;;;12.40;50.20;;;;;;5091333;28;19928;-69
2022/03/06 00:02:59;;;;;;;;;;;12.40;50.20;;;;;;5088880;28;19924;-69
2022/03/06 00:05:25;;;;;;;;;;;12.40;50.20;;;;;;5072090;28;20376;-69
2022/03/06 00:07:53;;;;;;;;;;;12.40;50.20;;;;;;5071217;28;19935;-70
2022/03/06 00:10:20;;;;;;;;;;;12.50;50.20;;;;;;5070851;28;19931;-69
2022/03/06 00:12:47;;;;;;;;;;;12.40;50.10;;;;;;5070825;28;19974;-69
2022/03/06 00:15:14;;;;;;;;;;;12.90;50.50;;;;;;5073717;28;19924;-69
2022/03/06 00:17:41;;;;;;;;;;;12.30;50.10;;;;;;5092147;28;19930;-70
2022/03/06 00:20:08;;;;;;;;;;;12.30;50.10;;;;;;5095701;28;19924;-69
2022/03/06 00:22:35;;;;;;;;;;;12.30;50.10;;;;;;5096453;28;19924;-70
2022/03/06 00:25:02;;;;;;;;;;;12.30;50.20;;;;;;5095812;28;20381;-69
2022/03/06 00:27:28;;;;;;;;;;;12.30;50.10;;;;;;5094782;28;19928;-69
2022/03/06 00:29:55;;;;;;;;;;;13.20;50.70;;;;;;5087942;28;19924;-69
2022/03/06 00:32:23;;;;;;;;;;;12.30;50.10;;;;;;5074659;28;19931;-69
2022/03/06 00:34:49;;;;;;;;;;;12.30;50.10;;;;;;5075556;28;19925;-70
2022/03/06 00:37:16;;;;;;;;;;;12.30;50.20;;;;;;5075205;28;19931;-69
2022/03/06 00:39:42;;;;;;;;;;;13.20;50.60;;;;;;5074664;28;20003;-69
2022/03/06 00:42:09;;;;;;;;;;;12.30;50.20;;;;;;5074220;28;19928;-69
2022/03/06 00:44:36;;;;;;;;;;;12.30;50.10;;;;;;5087785;28;19924;-69
2022/03/06 00:47:02;;;;;;;;;;;12.30;50.20;;;;;;5095510;28;19924;-69
2022/03/06 00:49:30;;;;;;;;;;;12.30;50.20;;;;;;5095606;28;19928;-69
2022/03/06 00:51:57;;;;;;;;;;;12.30;50.20;;;;;;5090158;28;19924;-69
2022/03/06 00:54:24;;;;;;;;;;;13.20;50.60;;;;;;5075499;28;19931;-70
2022/03/06 00:56:50;;;;;;;;;;;12.30;50.20;;;;;;5075048;28;20015;-69
2022/03/06 00:59:17;;;;;;;;;;;12.30;50.10;;;;;;5092080;28;20384;-69
2022/03/06 01:01:44;;;;;;;;;;;12.30;50.20;;;;;;5095364;28;19924;-71
2022/03/06 01:04:10;;;;;;;;;;;12.60;50.20;;;;;;5095353;28;19930;-70
2022/03/06 01:06:38;;;;;;;;;;;12.30;50.20;;;;;;5095203;28;19924;-69
2022/03/06 01:09:05;;;;;;;;;;;12.30;50.20;;;;;;5094014;28;19924;-69
2022/03/06 01:11:31;;;;;;;;;;;12.30;50.10;;;;;;5095195;28;19928;-69
2022/03/06 01:13:58;;;;;;;;;;;12.70;50.40;;;;;;5093631;28;21595;-69
2022/03/06 01:16:25;;;;;;;;;;;12.30;50.10;;;;;;5093715;28;19924;-70
2022/03/06 01:18:51;;;;;;;;;;;12.30;50.10;;;;;;5093877;28;19924;-69
2022/03/06 01:21:18;;;;;;;;;;;12.30;50.10;;;;;;5095009;28;19930;-69
2022/03/06 01:23:46;;;;;;;;;;;12.30;50.10;;;;;;5089062;28;19930;-70
2022/03/06 01:26:12;;;;;;;;;;;12.70;50.30;;;;;;5080860;28;19930;-69
2022/03/06 01:28:39;;;;;;;;;;;12.30;50.00;;;;;;5094861;28;19924;-69
2022/03/06 01:31:05;;;;;;;;;;;12.70;50.20;;;;;;5093744;28;19925;-70
2022/03/06 01:33:32;;;;;;;;;;;12.50;50.10;;;;;;5094590;28;19924;-69
2022/03/06 01:35:58;;;;;;;;;;;12.40;50.00;;;;;;5094524;28;19924;-69
2022/03/06 01:38:25;;;;;;;;;;;12.60;50.10;;;;;;5094500;28;19932;-70
2022/03/06 01:40:53;;;;;;;;;;;12.40;50.00;;;;;;5082647;28;19931;-69
2022/03/06 01:43:19;;;;;;;;;;;12.40;50.00;;;;;;5074389;28;19925;-69
2022/03/06 01:45:46;;;;;;;;;;;12.40;50.00;;;;;;5074272;28;19925;-69
2022/03/06 01:48:12;;;;;;;;;;;12.40;50.00;;;;;;5074208;28;19925;-69
2022/03/06 01:50:39;;;;;;;;;;;12.40;50.00;;;;;;5073042;28;19924;-69
2022/03/06 01:53:06;;;;;;;;;;;12.40;50.00;;;;;;5073299;28;19925;-69
2022/03/06 01:55:33;;;;;;;;;;;12.40;50.00;;;;;;5073864;28;20373;-69
2022/03/06 01:58:01;;;;;;;;;;;13.10;50.30;;;;;;5075456;28;20297;-70
2022/03/06 02:00:29;;;;;;;;;;;12.40;49.90;;;;;;5074181;28;19928;-69
2022/03/06 02:02:55;;;;;;;;;;;12.50;50.00;;;;;;5073849;28;19925;-69
2022/03/06 02:05:22;;;;;;;;;;;12.60;50.00;;;;;;5072914;28;19924;-70
2022/03/06 02:07:48;;;;;;;;;;;12.50;50.00;;;;;;5073814;28;19930;-70
2022/03/06 02:10:15;;;;;;;;;;;12.50;50.00;;;;;;5073946;28;20373;-70
2022/03/06 02:12:42;;;;;;;;;;;12.60;50.00;;;;;;5073942;28;19940;-70
2022/03/06 02:15:10;;;;;;;;;;;12.50;50.00;;;;;;5093739;28;20377;-70
2022/03/06 02:17:37;;;;;;;;;;;12.50;49.90;;;;;;5093524;28;19946;-70
2022/03/06 02:20:04;;;;;;;;;;;13.20;50.30;;;;;;5093101;28;19928;-69
2022/03/06 02:22:33;;;;;;;;;;;12.50;49.90;;;;;;5094032;28;19924;-69
2022/03/06 02:24:59;;;;;;;;;;;12.50;49.90;;;;;;5093914;28;19924;-70
2022/03/06 02:27:26;;;;;;;;;;;12.50;49.90;;;;;;5093714;28;20299;-70
2022/03/06 02:29:53;;;;;;;;;;;12.50;49.90;;;;;;5085374;28;19925;-70
2022/03/06 02:32:21;;;;;;;;;;;12.50;49.90;;;;;;5073346;28;19931;-69
2022/03/06 02:34:48;;;;;;;;;;;13.40;50.40;;;;;;5087009;28;19924;-69
2022/03/06 02:37:15;;;;;;;;;;;12.60;50.00;;;;;;5093317;28;19930;-69
2022/03/06 02:39:44;;;;;;;;;;;12.50;49.90;;;;;;5093554;28;19924;-69
2022/03/06 02:42:11;;;;;;;;;;;12.50;49.90;;;;;;5093375;28;19967;-70
2022/03/06 02:44:37;;;;;;;;;;;12.60;49.90;;;;;;5093497;28;19932;-69
2022/03/06 02:47:04;;;;;;;;;;;12.70;50.00;;;;;;5090181;28;19927;-70
2022/03/06 02:49:31;;;;;;;;;;;12.50;49.90;;;;;;5092157;28;19931;-70
2022/03/06 02:51:58;;;;;;;;;;;12.80;50.00;;;;;;5093390;28;19930;-69
2022/03/06 02:54:24;;;;;;;;;;;12.50;49.90;;;;;;5092219;28;19928;-69
2022/03/06 02:56:52;;;;;;;;;;;12.80;50.00;;;;;;5092007;28;19924;-70
2022/03/06 02:59:18;;;;;;;;;;;12.50;49.80;;;;;;5092268;28;19931;-69
2022/03/06 03:01:45;;;;;;;;;;;13.00;50.10;;;;;;5092240;28;19924;-69
2022/03/06 03:04:12;;;;;;;;;;;12.60;49.90;;;;;;5074627;28;20445;-70
2022/03/06 03:06:38;;;;;;;;;;;13.10;50.20;;;;;;5072399;28;19931;-69
2022/03/06 03:09:05;;;;;;;;;;;12.60;49.90;;;;;;5072943;28;19930;-71
2022/03/06 03:11:32;;;;;;;;;;;12.60;49.90;;;;;;5054927;28;19925;-69
2022/03/06 03:14:00;;;;;;;;;;;12.50;49.80;;;;;;5071878;28;19931;-69
2022/03/06 03:16:27;;;;;;;;;;;12.60;49.90;;;;;;5071124;28;19924;-69
2022/03/06 03:18:54;;;;;;;;;;;13.50;50.40;;;;;;5073578;28;19935;-70
2022/03/06 03:21:20;;;;;;;;;;;12.60;49.90;;;;;;5072745;28;19931;-69
2022/03/06 03:23:47;;;;;;;;;;;12.70;49.90;;;;;;5072839;28;19925;-70
2022/03/06 03:26:13;;;;;;;;;;;12.60;49.90;;;;;;5072117;28;20053;-69
2022/03/06 03:28:40;;;;;;;;;;;12.70;50.00;;;;;;5071422;28;19924;-70
2022/03/06 03:31:08;;;;;;;;;;;12.70;49.90;;;;;;5072459;28;19925;-69
2022/03/06 03:33:35;;;;;;;;;;;12.60;49.90;;;;;;5071461;28;19935;-70
2022/03/06 03:36:02;;;;;;;;;;;12.50;49.80;;;;;;5072229;28;20037;-69
2022/03/06 03:38:28;;;;;;;;;;;12.60;49.90;;;;;;5071064;28;19928;-69
2022/03/06 03:40:55;;;;;;;;;;;12.60;49.90;;;;;;5072431;28;20015;-69
2022/03/06 03:43:22;;;;;;;;;;;12.60;49.90;;;;;;5071154;28;19939;-69
2022/03/06 03:45:49;;;;;;;;;;;13.30;50.30;;;;;;5072210;28;19925;-69
2022/03/06 03:48:17;;;;;;;;;;;12.60;49.90;;;;;;5072295;28;20396;-69
2022/03/06 03:50:44;;;;;;;;;;;13.10;50.20;;;;;;5072251;28;19933;-69
2022/03/06 03:53:10;;;;;;;;;;;13.10;50.20;;;;;;5080431;28;19930;-70
2022/03/06 03:55:37;;;;;;;;;;;12.60;49.90;;;;;;5095243;28;19931;-70
2022/03/06 03:58:03;;;;;;;;;;;12.50;49.80;;;;;;5095592;28;20014;-69
2022/03/06 04:00:30;;;;;;;;;;;12.60;49.90;;;;;;5097044;28;19930;-70
2022/03/06 04:02:56;;;;;;;;;;;12.60;49.90;;;;;;5095712;28;19967;-69
2022/03/06 04:05:24;;;;;;;;;;;12.60;49.80;;;;;;5096290;28;20007;-72
2022/03/06 04:07:51;;;;;;;;;;;12.60;49.80;;;;;;5096105;28;19931;-69
2022/03/06 04:10:18;;;;;;;;;;;13.60;50.40;;;;;;5082899;28;19935;-69
2022/03/06 04:12:44;;;;;;;;;;;12.60;49.90;;;;;;5076092;28;20296;-69
2022/03/06 04:15:11;;;;;;;;;;;12.60;49.80;;;;;;5076262;28;19924;-70
2022/03/06 04:17:37;;;;;;;;;;;12.60;49.80;;;;;;5075439;28;20292;-70
2022/03/06 04:20:04;;;;;;;;;;;13.50;50.30;;;;;;5076170;28;20315;-69
2022/03/06 04:22:32;;;;;;;;;;;12.60;49.80;;;;;;5075922;28;19924;-70
2022/03/06 04:24:58;;;;;;;;;;;12.60;49.80;;;;;;5075942;28;19924;-69
2022/03/06 04:27:25;;;;;;;;;;;12.60;49.80;;;;;;5076819;28;19931;-70
2022/03/06 04:29:52;;;;;;;;;;;13.40;50.30;;;;;;5075553;28;19928;-70
2022/03/06 04:32:18;;;;;;;;;;;13.50;50.30;;;;;;5075747;28;19924;-69
2022/03/06 04:34:45;;;;;;;;;;;12.60;49.80;;;;;;5075973;28;19931;-69
2022/03/06 04:37:11;;;;;;;;;;;12.60;49.80;;;;;;5075217;28;19971;-71
2022/03/06 04:39:39;;;;;;;;;;;13.30;50.20;;;;;;5074819;28;20444;-69
2022/03/06 04:42:06;;;;;;;;;;;12.50;49.80;;;;;;5095767;28;20312;-69
2022/03/06 04:44:33;;;;;;;;;;;12.60;49.80;;;;;;5078107;28;19931;-69
2022/03/06 04:46:59;;;;;;;;;;;12.60;49.80;;;;;;5075582;28;20284;-69
2022/03/06 04:49:26;;;;;;;;;;;12.60;49.80;;;;;;5075132;28;20328;-70
2022/03/06 04:51:53;;;;;;;;;;;12.60;49.80;;;;;;5085568;28;19928;-70
2022/03/06 04:54:20;;;;;;;;;;;12.50;49.70;;;;;;5095702;28;19959;-69
2022/03/06 04:56:48;;;;;;;;;;;12.50;49.70;;;;;;5095364;28;19930;-69
2022/03/06 04:59:15;;;;;;;;;;;12.50;49.70;;;;;;5094496;28;19924;-69
2022/03/06 05:01:41;;;;;;;;;;;12.60;49.80;;;;;;5077104;28;19930;-69
2022/03/06 05:04:08;;;;;;;;;;;12.60;49.80;;;;;;5095624;28;19924;-70
2022/03/06 05:06:35;;;;;;;;;;;12.60;49.80;;;;;;5094612;28;20015;-69
2022/03/06 05:09:01;;;;;;;;;;;12.50;49.70;;;;;;5094958;28;19924;-69
2022/03/06 05:11:28;;;;;;;;;;;12.50;49.70;;;;;;5095115;28;20043;-69
2022/03/06 05:13:56;;;;;;;;;;;12.60;49.80;;;;;;5094128;28;19928;-69
2022/03/06 05:16:23;;;;;;;;;;;12.50;49.70;;;;;;5093063;28;19985;-69
2022/03/06 05:18:50;;;;;;;;;;;12.50;49.70;;;;;;5095167;28;19954;-69
2022/03/06 05:21:16;;;;;;;;;;;12.50;49.70;;;;;;5095067;28;19924;-70
2022/03/06 05:23:43;;;;;;;;;;;12.50;49.70;;;;;;5094744;28;20368;-69
2022/03/06 05:26:10;;;;;;;;;;;12.50;49.70;;;;;;5093808;28;20288;-70
2022/03/06 05:28:36;;;;;;;;;;;12.50;49.70;;;;;;5092988;28;20460;-69
2022/03/06 05:31:04;;;;;;;;;;;12.50;49.70;;;;;;5093323;28;20023;-69
2022/03/06 05:33:31;;;;;;;;;;;12.50;49.70;;;;;;5091978;28;19930;-70
2022/03/06 05:35:57;;;;;;;;;;;12.50;49.70;;;;;;5094217;28;20603;-70
2022/03/06 05:38:24;;;;;;;;;;;12.80;49.80;;;;;;5094759;28;20261;-69
2022/03/06 05:40:51;;;;;;;;;;;12.50;49.70;;;;;;5094790;28;20313;-69
2022/03/06 05:43:17;;;;;;;;;;;12.50;49.70;;;;;;5095173;28;20292;-70
2022/03/06 05:45:44;;;;;;;;;;;12.50;49.70;;;;;;5076405;28;19924;-69
2022/03/06 05:48:12;;;;;;;;;;;12.60;49.70;;;;;;5094732;28;20349;-70
2022/03/06 05:50:39;;;;;;;;;;;13.00;49.90;;;;;;5093003;28;19924;-69
2022/03/06 05:53:05;;;;;;;;;;;12.50;49.70;;;;;;5093602;28;19928;-70
2022/03/06 05:55:32;;;;;;;;;;;12.60;49.70;;;;;;5093061;28;19931;-69
2022/03/06 05:57:58;;;;;;;;;;;12.50;49.70;;;;;;5092992;28;19942;-69
2022/03/06 06:00:25;;;;;;;;;;;13.40;50.20;;;;;;5093959;28;19934;-69
2022/03/06 06:02:52;;;;;;;;;;;13.10;50.00;;;;;;5093063;28;19924;-70
2022/03/06 06:05:19;;;;;;;;;;;12.50;49.70;;;;;;5093013;28;19924;-70
2022/03/06 06:07:47;;;;;;;;;;;12.50;49.70;;;;;;5091192;28;19931;-69
2022/03/06 06:10:13;;;;;;;;;;;12.50;49.70;;;;;;5093812;28;19928;-69
2022/03/06 06:12:40;;;;;;;;;;;12.50;49.70;;;;;;5093791;28;19924;-70
2022/03/06 06:15:07;;;;;;;;;;;12.50;49.70;;;;;;5093691;28;19923;-70
2022/03/06 06:17:33;;;;;;;;;;;12.50;49.70;;;;;;5093132;28;19924;-69
2022/03/06 06:20:01;;;;;;;;;;;12.70;49.80;;;;;;5093687;28;19924;-70
2022/03/06 06:22:29;;;;;;;;;;;12.50;49.70;;;;;;5092212;28;19928;-69
2022/03/06 06:24:56;;;;;;;;;;;12.50;49.70;;;;;;5093775;28;19969;-69
2022/03/06 06:27:23;;;;;;;;;;;12.50;49.70;;;;;;5093296;28;20377;-70
2022/03/06 06:29:49;;;;;;;;;;;12.50;49.70;;;;;;5092565;28;20015;-69
2022/03/06 06:32:16;;;;;;;;;;;12.60;49.80;;;;;;5093497;28;19924;-69
2022/03/06 06:34:42;;;;;;;;;;;12.50;49.70;;;;;;5092599;28;19924;-69
2022/03/06 06:37:09;;;;;;;;;;;12.50;49.70;;;;;;5093294;28;19924;-69
2022/03/06 06:39:37;;;;;;;;;;;12.50;49.70;;;;;;5091865;28;19928;-70
2022/03/06 06:42:04;;;;;;;;;;;12.50;49.70;;;;;;5092455;28;19924;-69
2022/03/06 06:44:30;;;;;;;;;;;12.50;49.70;;;;;;5093089;28;20014;-69
2022/03/06 06:46:57;;;;;;;;;;;12.80;49.80;;;;;;5093233;28;19924;-71
2022/03/06 06:49:23;;;;;;;;;;;12.50;49.70;;;;;;5093225;28;19931;-69
2022/03/06 06:51:50;;;;;;;;;;;13.40;50.10;;;;;;5093248;28;19930;-69
2022/03/06 06:54:16;;;;;;;;;;;12.50;49.60;;;;;;5091980;28;19931;-69
2022/03/06 06:56:44;;;;;;;;;;;12.50;49.60;;;;;;5091133;28;19931;-70
2022/03/06 06:59:11;;;;;;;;;;;12.50;49.60;;;;;;5092878;28;19924;-69
2022/03/06 07:01:38;;;;;;;;;;;12.60;49.70;;;;;;5092963;28;20296;-69
2022/03/06 07:04:04;;;;;;;;;;;10.00;48.20;;;;;;5093019;28;20304;-69
2022/03/06 07:06:31;;;;;;;;;;;12.50;49.60;;;;;;5092749;28;20422;-71
2022/03/06 07:08:57;;;;;;;;;;;12.50;49.60;;;;;;5092871;28;20388;-70
2022/03/06 07:11:24;;;;;;;;;;;12.50;49.60;;;;;;5092567;28;19924;-70
2022/03/06 07:13:52;;;;;;;;;;;12.50;49.60;;;;;;5091043;28;19934;-70
2022/03/06 07:16:19;;;;;;;;;;;12.50;49.60;;;;;;5091508;28;19924;-70
2022/03/06 07:18:45;;;;;;;;;;;12.70;49.70;;;;;;5092919;28;19924;-69
2022/03/06 07:21:12;;;;;;;;;;;12.60;49.60;;;;;;5092946;28;19969;-69
2022/03/06 07:23:39;;;;;;;;;;;12.60;50.20;;;;;;5092647;28;19924;-69
2022/03/06 07:26:05;;;;;;;;;;;12.80;49.70;;;;;;5091186;28;20070;-69
2022/03/06 07:28:32;;;;;;;;;;;12.70;49.70;;;;;;5091075;28;19978;-70
2022/03/06 07:31:00;;;;;;;;;;;12.60;49.60;;;;;;5091017;28;19928;-70
2022/03/06 07:33:26;;;;;;;;;;;12.60;49.50;;;;;;5092524;28;19928;-69
2022/03/06 07:35:53;;;;;;;;;;;12.60;49.50;;;;;;5092600;28;19924;-70
2022/03/06 07:38:19;;;;;;;;;;;12.70;49.60;;;;;;5092348;28;19924;-69
2022/03/06 07:40:46;;;;;;;;;;;13.60;50.10;;;;;;5092380;28;19954;-69
2022/03/06 07:43:12;;;;;;;;;;;12.70;49.50;;;;;;5092371;28;20304;-69
2022/03/06 07:45:39;;;;;;;;;;;9.80;47.80;;;;;;5090484;28;19924;-69
2022/03/06 07:48:07;;;;;;;;;;;12.80;49.50;;;;;;5092314;28;19928;-69
2022/03/06 07:50:34;;;;;;;;;;;12.80;49.50;;;;;;5092651;28;19978;-69
2022/03/06 07:53:00;;;;;;;;;;;12.80;49.40;;;;;;5092251;28;20011;-69
2022/03/06 07:55:27;;;;;;;;;;;12.80;49.40;;;;;;5092002;28;19924;-70
2022/03/06 07:57:53;;;;;;;;;;;12.80;49.40;;;;;;5092297;28;19930;-69
2022/03/06 08:00:20;;;;;;;;;;;13.00;49.50;;;;;;5092266;28;19931;-69
2022/03/06 08:02:46;;;;;;;;;;;12.90;49.50;;;;;;5089657;28;19930;-69
2022/03/06 08:05:14;;;;;;;;;;;12.90;49.50;;;;;;5092029;28;20038;-70
2022/03/06 08:07:41;;;;;;;;;;;12.90;49.40;;;;;;5090898;28;20299;-71
2022/03/06 08:10:08;;;;;;;;;;;13.00;49.30;;;;;;5092035;28;20252;-69
2022/03/06 08:12:35;;;;;;;;;;;13.00;49.30;;;;;;5091072;28;19924;-71
2022/03/06 08:15:01;;;;;;;;;;;13.00;49.30;;;;;;5090333;28;20010;-71
2022/03/06 08:17:28;;;;;;;;;;;13.00;49.20;;;;;;5075738;28;19932;-68
2022/03/06 08:19:54;;;;;;;;;;;13.00;49.20;;;;;;5088658;28;19999;-67
2022/03/06 08:22:23;;;;;;;;;;;13.80;49.70;;;;;;5092290;28;19924;-68
2022/03/06 08:24:49;;;;;;;;;;;13.00;49.20;;;;;;5092410;28;19923;-70
2022/03/06 08:27:16;;;;;;;;;;;13.10;49.00;;;;;;5090857;28;20408;-69
2022/03/06 08:29:43;;;;;;;;;;;13.10;49.20;;;;;;5090986;28;20403;-69
2022/03/06 08:32:09;;;;;;;;;;;13.10;49.30;;;;;;5089393;28;20327;-70
2022/03/06 08:34:36;;;;;;;;;;;13.20;49.40;;;;;;5077015;28;19935;-70
2022/03/06 08:37:02;;;;;;;;;;;13.20;49.30;;;;;;5079413;28;20399;-69
2022/03/06 08:39:30;;;;;;;;;;;13.20;49.30;;;;;;5082997;28;19932;-69
2022/03/06 08:41:57;;;;;;;;;;;13.30;49.40;;;;;;5084697;28;19946;-69
2022/03/06 08:44:24;;;;;;;;;;;13.30;49.30;;;;;;5084033;28;20304;-70
2022/03/06 08:46:50;;;;;;;;;;;13.30;49.30;;;;;;5086007;28;20276;-69
2022/03/06 08:49:17;;;;;;;;;;;13.80;49.50;;;;;;5084533;28;20304;-69
2022/03/06 08:51:43;;;;;;;;;;;13.40;49.20;;;;;;5088023;28;20307;-69
2022/03/06 08:54:10;;;;;;;;;;;13.40;49.10;;;;;;5086562;28;19946;-70
2022/03/06 08:56:38;;;;;;;;;;;13.40;49.10;;;;;;5082905;28;19928;-68
2022/03/06 08:59:05;;;;;;;;;;;13.50;49.10;;;;;;5084193;28;19924;-70
2022/03/06 09:01:31;;;;;;;;;;;13.40;49.00;;;;;;5085001;28;19924;-70
2022/03/06 09:03:58;;;;;;;;;;;13.50;49.00;;;;;;5083335;28;20015;-69
2022/03/06 09:06:24;;;;;;;;;;;13.80;49.10;;;;;;5083100;28;19924;-70
2022/03/06 09:08:51;;;;;;;;;;;13.50;48.90;;;;;;5084576;28;20441;-70
2022/03/06 09:11:18;;;;;;;;;;;13.50;48.90;;;;;;5080973;28;20023;-70
2022/03/06 09:13:46;;;;;;;;;;;13.60;48.90;;;;;;5080291;28;19924;-71
2022/03/06 09:16:12;;;;;;;;;;;13.60;49.00;;;;;;5082371;28;19924;-70
2022/03/06 09:18:39;;;;;;;;;;;13.60;48.90;;;;;;5084991;28;19925;-70
2022/03/06 09:21:06;;;;;;;;;;;13.60;48.90;;;;;;5085722;28;19924;-70
2022/03/06 09:23:32;;;;;;;;;;;13.70;49.00;;;;;;5083671;28;20382;-69
2022/03/06 09:25:59;;;;;;;;;;;13.70;49.00;;;;;;5082824;28;20373;-70
2022/03/06 09:28:25;;;;;;;;;;;13.70;48.90;;;;;;5083173;28;20307;-70
2022/03/06 09:30:53;;;;;;;;;;;13.70;48.90;;;;;;5085121;28;19948;-69
2022/03/06 09:33:20;;;;;;;;;;;13.70;48.90;;;;;;5081827;28;19931;-70
2022/03/06 09:35:46;;;;;;;;;;;13.70;48.90;;;;;;5083045;28;19924;-70
2022/03/06 09:38:13;;;;;;;;;;;13.90;49.00;;;;;;5081044;28;19931;-69
2022/03/06 09:40:40;;;;;;;;;;;13.80;48.80;;;;;;5075899;28;20385;-70
2022/03/06 09:43:07;;;;;;;;;;;13.80;48.80;;;;;;5074580;28;19951;-70
2022/03/06 09:45:34;;;;;;;;;;;14.30;49.60;;;;;;5074148;28;19931;-70
2022/03/06 09:48:03;;;;;;;;;;;13.80;48.70;;;;;;5074077;28;19928;-68
2022/03/06 09:50:30;;;;;;;;;;;13.80;48.70;;;;;;5073282;28;19931;-70
2022/03/06 09:52:56;;;;;;;;;;;13.80;48.60;;;;;;5079348;28;19924;-69
2022/03/06 09:55:23;;;;;;;;;;;13.80;48.60;;;;;;5082752;28;19924;-69
2022/03/06 09:57:52;;;;;;;;;;;13.80;48.60;;;;;;5083994;28;19935;-69
2022/03/06 10:00:19;;;;;;;;;;;13.90;48.60;;;;;;5083760;28;19924;-70
2022/03/06 10:02:51;;;;;;;;;;;13.90;48.60;;;;;;5082996;28;19930;-69
2022/03/06 10:05:32;;;;;;;;;;;13.90;48.50;;;;;;5083461;28;19936;-70
2022/03/06 10:08:18;;;;;;;;;;;13.90;48.40;;;;;;5083279;28;19924;-70
2022/03/06 10:10:45;;;;;;;;;;;14.00;48.50;;;;;;5083328;28;19931;-70
2022/03/06 10:13:18;;;;;;;;;;;14.00;48.40;;;;;;5082179;28;19974;-70
2022/03/06 10:16:15;;;;;;;;;;;14.00;48.50;;;;;;5089782;28;19927;-70
2022/03/06 10:18:42;;;;;;;;;;;14.00;48.60;;;;;;5015261;28;19935;-70
2022/03/06 10:21:27;;;;;;;;;;;14.00;48.60;;;;;;5074074;28;19924;-71
2022/03/06 10:23:55;;;;;;;;;;;14.10;48.70;;;;;;5093991;28;19931;-69
2022/03/06 10:26:22;;;;;;;;;;;14.10;48.60;;;;;;5075885;28;20011;-70
2022/03/06 10:28:50;;;;;;;;;;;14.10;48.90;;;;;;5072376;28;20019;-72
2022/03/06 10:31:17;;;;;;;;;;;14.20;48.70;;;;;;5073686;28;20023;-71
2022/03/06 10:33:54;;;;;;;;;;;14.30;48.70;;;;;;5073640;28;20300;-70
2022/03/06 10:36:23;;;;;;;;;;;14.30;48.70;;;;;;5079693;28;19924;-70
2022/03/06 10:38:49;;;;;;;;;;;14.40;48.80;;;;;;5078687;28;19924;-71
2022/03/06 10:41:17;;;;;;;;;;;14.40;48.50;;;;;;5098056;28;19925;-70
2022/03/06 10:43:44;;;;;;;;;;;14.50;48.40;;;;;;5073105;28;20003;-70
2022/03/06 10:46:11;;;;;;;;;;;14.50;48.20;;;;;;5072321;28;20308;-70
2022/03/06 10:48:37;;;;;;;;;;;14.60;48.20;;;;;;5084700;28;19932;-70
2022/03/06 10:51:04;;;;;;;;;;;14.60;48.10;;;;;;5082888;28;20292;-70
2022/03/06 10:53:31;;;;;;;;;;;14.60;47.90;;;;;;5082338;28;20021;-71
2022/03/06 10:56:05;;;;;;;;;;;14.70;47.90;;;;;;5075156;28;20007;-70
2022/03/06 10:58:33;;;;;;;;;;;14.70;47.80;;;;;;5080904;28;20383;-70
2022/03/06 11:01:00;;;;;;;;;;;14.70;47.80;;;;;;5083260;28;19950;-70
2022/03/06 11:03:26;;;;;;;;;;;14.70;47.70;;;;;;5082784;28;19924;-70
2022/03/06 11:05:53;;;;;;;;;;;14.70;47.70;;;;;;5083359;28;20334;-70
2022/03/06 11:08:21;;;;;;;;;;;14.80;47.70;;;;;;5082950;28;19923;-71
2022/03/06 11:10:48;;;;;;;;;;;14.80;47.70;;;;;;5083577;28;19924;-70
2022/03/06 11:13:15;;;;;;;;;;;14.80;47.70;;;;;;5078738;28;19924;-70
2022/03/06 11:15:43;;;;;;;;;;;14.80;47.80;;;;;;5089859;28;19930;-70
2022/03/06 11:18:09;;;;;;;;;;;14.80;47.80;;;;;;5093061;28;19924;-70
2022/03/06 11:20:36;;;;;;;;;;;14.80;47.80;;;;;;5093082;28;19924;-70
2022/03/06 11:23:04;;;;;;;;;;;14.90;47.70;;;;;;5091863;28;20399;-70
2022/03/06 11:25:30;;;;;;;;;;;14.80;47.70;;;;;;5086354;28;20011;-70
2022/03/06 11:28:02;;;;;;;;;;;14.90;47.70;;;;;;5072571;28;19924;-70
2022/03/06 11:30:29;;;;;;;;;;;14.90;47.70;;;;;;5072714;28;19924;-70
2022/03/06 11:33:01;;;;;;;;;;;14.90;47.70;;;;;;5071486;28;19924;-70
2022/03/06 11:35:32;;;;;;;;;;;15.00;47.70;;;;;;5072272;28;20387;-70
2022/03/06 11:37:58;;;;;;;;;;;15.00;47.70;;;;;;5072728;28;19960;-69
2022/03/06 11:40:39;;;;;;;;;;;15.00;47.70;;;;;;5072834;28;19924;-70
2022/03/06 11:43:06;;;;;;;;;;;15.00;47.70;;;;;;5086509;28;19931;-70
2022/03/06 11:45:52;;;;;;;;;;;15.00;47.70;;;;;;5092510;28;19992;-70
2022/03/06 11:48:23;;;;;;;;;;;15.00;47.70;;;;;;5092567;28;19975;-71
2022/03/06 11:51:09;;;;;;;;;;;15.00;47.70;;;;;;5091403;28;19946;-70
2022/03/06 11:53:56;;;;;;;;;;;15.00;47.70;;;;;;5091284;28;19928;-70
2022/03/06 11:56:38;;;;;;;;;;;15.00;47.60;;;;;;5069131;28;19925;-70
2022/03/06 11:59:06;;;;;;;;;;;15.00;47.60;;;;;;5080071;28;19925;-69
2022/03/06 12:01:33;;;;;;;;;;;15.00;47.60;;;;;;5091099;28;19931;-71
2022/03/06 12:04:02;;;;;;;;;;;15.10;47.60;;;;;;5091460;28;19930;-72
2022/03/06 12:06:29;;;;;;;;;;;15.10;47.50;;;;;;5081123;28;20011;-72
2022/03/06 12:08:55;;;;;;;;;;;15.10;47.50;;;;;;5070951;28;19930;-72
2022/03/06 12:11:22;;;;;;;;;;;15.10;48.50;;;;;;5075343;28;19930;-71
2022/03/06 12:13:49;;;;;;;;;;;15.10;48.60;;;;;;5087094;28;20418;-71
2022/03/06 12:16:16;;;;;;;;;;;15.10;48.20;;;;;;5093782;28;19923;-71
2022/03/06 12:18:42;;;;;;;;;;;15.10;48.10;;;;;;5092252;28;19932;-70
2022/03/06 12:21:19;;;;;;;;;;;15.20;48.10;;;;;;5082608;28;19924;-71
2022/03/06 12:23:46;;;;;;;;;;;15.20;48.20;;;;;;5068902;28;19925;-71
2022/03/06 12:26:12;;;;;;;;;;;15.20;48.00;;;;;;5078398;28;19924;-70
2022/03/06 12:28:40;;;;;;;;;;;15.20;47.80;;;;;;5075960;28;20291;-70
2022/03/06 12:31:25;;;;;;;;;;;15.20;47.80;;;;;;5077010;28;20019;-70
2022/03/06 12:33:53;;;;;;;;;;;15.30;47.90;;;;;;5075917;28;20278;-71
2022/03/06 12:36:24;;;;;;;;;;;15.30;47.80;;;;;;5090513;28;20007;-71
2022/03/06 12:38:52;;;;;;;;;;;15.30;47.80;;;;;;5094967;28;19928;-70
2022/03/06 12:41:18;;;;;;;;;;;15.30;47.70;;;;;;5096291;28;19928;-69
2022/03/06 12:43:49;;;;;;;;;;;15.20;47.60;;;;;;5088001;28;19928;-72
2022/03/06 12:46:16;;;;;;;;;;;15.30;47.80;;;;;;5082660;28;19924;-71
2022/03/06 12:48:43;;;;;;;;;;;15.20;47.80;;;;;;5077453;28;19927;-71
2022/03/06 12:51:10;;;;;;;;;;;15.20;48.20;;;;;;5081329;28;19924;-70
2022/03/06 12:53:44;;;;;;;;;;;15.20;48.80;;;;;;5075560;28;19947;-71
2022/03/06 12:56:11;;;;;;;;;;;15.20;48.90;;;;;;5074185;28;19924;-72
2022/03/06 12:58:38;;;;;;;;;;;15.20;48.90;;;;;;5073989;28;20393;-72
2022/03/06 13:01:08;;;;;;;;;;;15.20;48.90;;;;;;5075329;28;19928;-72
2022/03/06 13:03:35;;;;;;;;;;;15.20;48.80;;;;;;5074397;28;19925;-70
2022/03/06 13:06:11;;;;;;;;;;;15.20;48.70;;;;;;5074744;28;19924;-71
2022/03/06 13:08:42;;;;;;;;;;;15.10;48.60;;;;;;5087598;28;20023;-72
2022/03/06 13:11:10;;;;;;;;;;;15.10;48.60;;;;;;5095320;28;19928;-71
2022/03/06 13:13:38;;;;;;;;;;;15.10;48.60;;;;;;5091126;28;19926;-72
2022/03/06 13:16:05;;;;;;;;;;;15.10;48.70;;;;;;5077728;28;19928;-71
2022/03/06 13:18:32;;;;;;;;;;;15.10;48.70;;;;;;5079289;28;19928;-73
2022/03/06 13:20:59;;;;;;;;;;;15.00;48.60;;;;;;5082113;28;19955;-71
2022/03/06 13:23:26;;;;;;;;;;;15.00;48.70;;;;;;5084415;28;20007;-72
2022/03/06 13:25:52;;;;;;;;;;;15.00;48.70;;;;;;5081316;28;19931;-72
2022/03/06 13:28:20;;;;;;;;;;;15.00;48.70;;;;;;5081994;28;19938;-72
2022/03/06 13:30:47;;;;;;;;;;;14.90;48.60;;;;;;5079999;28;19924;-72
2022/03/06 13:33:18;;;;;;;;;;;14.90;48.60;;;;;;5074858;28;19925;-70
2022/03/06 13:35:45;;;;;;;;;;;14.90;48.60;;;;;;5072538;28;19928;-72
2022/03/06 13:38:13;;;;;;;;;;;14.90;48.60;;;;;;5072459;28;19925;-71
2022/03/06 13:40:42;;;;;;;;;;;14.90;48.60;;;;;;5071869;28;20024;-72
2022/03/06 13:43:09;;;;;;;;;;;14.90;48.60;;;;;;5073708;28;20392;-72
2022/03/06 13:45:37;;;;;;;;;;;14.90;48.60;;;;;;5072355;28;19925;-70
2022/03/06 13:48:04;;;;;;;;;;;14.90;48.60;;;;;;5072371;28;20399;-73
2022/03/06 13:50:35;;;;;;;;;;;14.80;48.50;;;;;;5073252;28;19991;-72
2022/03/06 13:53:01;;;;;;;;;;;14.80;48.60;;;;;;5073922;28;20304;-72
2022/03/06 13:55:30;;;;;;;;;;;14.80;48.60;;;;;;5074200;28;19928;-72
2022/03/06 13:58:01;;;;;;;;;;;14.80;48.60;;;;;;5076354;28;19928;-71
2022/03/06 14:00:28;;;;;;;;;;;14.80;48.70;;;;;;5076340;28;19931;-71
2022/03/06 14:03:00;;;;;;;;;;;14.80;48.60;;;;;;5076055;28;20030;-70
2022/03/06 14:05:27;;;;;;;;;;;14.80;48.60;;;;;;5082943;28;20400;-70
2022/03/06 14:07:53;;;;;;;;;;;14.90;48.70;;;;;;5095318;28;19946;-71
2022/03/06 14:10:23;;;;;;;;;;;14.80;48.60;;;;;;5093529;28;19946;-71
2022/03/06 14:12:50;;;;;;;;;;;14.80;48.70;;;;;;5091403;28;19928;-71
2022/03/06 14:15:23;;;;;;;;;;;14.80;48.70;;;;;;5084652;28;19924;-69
2022/03/06 14:17:52;;;;;;;;;;;14.70;48.60;;;;;;5070837;28;19924;-71